createdAt,value
2018-07-22T00:02:29.172Z,2.43
2018-07-22T00:04:58.177Z,2.47
2018-07-22T00:07:27.203Z,4.87
2018-07-22T00:10:02.176Z,5.60
2018-07-22T00:12:31.594Z,3.93
2018-07-22T00:15:04.006Z,6.70
2018-07-22T00:17:33.322Z,2.83
2018-07-22T00:20:09.763Z,3.40
2018-07-22T00:22:38.659Z,2.77
2018-07-22T00:25:10.398Z,5.63
2018-07-22T00:27:39.922Z,5.00
2018-07-22T00:30:17.178Z,2.93
2018-07-22T00:32:46.242Z,2.97
2018-07-22T00:35:16.244Z,4.10
2018-07-22T00:37:46.378Z,3.03
2018-07-22T00:40:17.662Z,2.20
2018-07-22T00:42:47.169Z,4.50
2018-07-22T00:45:21.326Z,3.13
2018-07-22T00:47:51.932Z,4.47
2018-07-22T00:50:25.045Z,2.87
2018-07-22T00:52:55.647Z,3.90
2018-07-22T00:55:29.217Z,3.53
2018-07-22T00:58:02.580Z,3.87
2018-07-22T01:00:34.186Z,3.07
2018-07-22T01:03:04.250Z,3.80
2018-07-22T01:05:35.173Z,3.60
2018-07-22T01:08:04.389Z,9.27
2018-07-22T01:10:35.212Z,2.97
2018-07-22T01:13:04.485Z,6.40
2018-07-22T01:15:34.710Z,3.37
2018-07-22T01:18:04.513Z,3.73
2018-07-22T01:20:37.206Z,5.47
2018-07-22T01:23:06.752Z,4.60
2018-07-22T01:25:40.646Z,3.33
2018-07-22T01:28:09.823Z,4.83
2018-07-22T01:30:44.712Z,2.70
2018-07-22T01:33:14.417Z,4.73
2018-07-22T01:35:45.263Z,3.17
2018-07-22T01:38:15.262Z,2.67
2018-07-22T01:40:48.153Z,4.63
2018-07-22T01:43:18.635Z,4.30
2018-07-22T01:45:50.240Z,4.67
2018-07-22T01:48:19.278Z,4.70
2018-07-22T01:50:56.182Z,2.93
2018-07-22T01:53:25.657Z,3.47
2018-07-22T01:55:55.512Z,4.17
2018-07-22T01:58:25.151Z,3.03
2018-07-22T02:01:01.667Z,2.30
2018-07-22T02:03:30.769Z,3.00
2018-07-22T02:06:02.433Z,4.47
2018-07-22T02:08:31.782Z,3.37
2018-07-22T02:11:04.930Z,3.20
2018-07-22T02:13:33.680Z,3.37
2018-07-22T02:16:09.779Z,4.00
2018-07-22T02:18:39.097Z,3.37
2018-07-22T02:21:11.498Z,3.03
2018-07-22T02:23:40.650Z,4.30
2018-07-22T02:26:14.413Z,4.00
2018-07-22T02:28:43.396Z,3.80
2018-07-22T02:31:19.665Z,4.70
2018-07-22T02:33:49.199Z,5.63
2018-07-22T02:36:18.802Z,3.83
2018-07-22T02:38:48.359Z,5.23
2018-07-22T02:41:21.484Z,3.53
2018-07-22T02:43:50.646Z,4.20
2018-07-22T02:46:26.821Z,3.67
2018-07-22T02:48:56.582Z,7.50
2018-07-22T02:51:26.815Z,3.57
2018-07-22T02:53:56.137Z,4.33
2018-07-22T02:56:28.597Z,5.20
2018-07-22T02:58:57.885Z,3.57
2018-07-22T03:01:31.493Z,4.33
2018-07-22T03:04:01.081Z,3.90
2018-07-22T03:06:37.516Z,4.27
2018-07-22T03:09:08.950Z,4.40
2018-07-22T03:11:38.293Z,3.87
2018-07-22T03:14:08.139Z,3.37
2018-07-22T03:16:38.404Z,3.67
2018-07-22T03:19:07.661Z,4.27
2018-07-22T03:21:44.636Z,5.90
2018-07-22T03:24:14.571Z,4.73
2018-07-22T03:26:45.453Z,6.43
2018-07-22T03:29:15.473Z,4.37
2018-07-22T03:31:48.241Z,5.50
2018-07-22T03:34:17.168Z,8.30
2018-07-22T03:36:50.170Z,4.90
2018-07-22T03:39:20.165Z,5.30
2018-07-22T03:41:52.765Z,7.67
2018-07-22T03:44:22.696Z,5.80
2018-07-22T03:46:55.628Z,5.80
2018-07-22T03:49:25.040Z,4.70
2018-07-22T03:51:57.662Z,5.60
2018-07-22T03:54:26.644Z,5.37
2018-07-22T03:57:02.998Z,6.80
2018-07-22T03:59:32.297Z,8.80
2018-07-22T04:02:03.676Z,8.47
2018-07-22T04:04:33.171Z,7.77
2018-07-22T04:07:09.784Z,7.30
2018-07-22T04:09:38.715Z,5.70
2018-07-22T04:12:11.364Z,5.77
2018-07-22T04:14:41.078Z,6.83
2018-07-22T04:17:14.175Z,7.10
2018-07-22T04:19:43.611Z,7.07
2018-07-22T04:22:15.598Z,5.87
2018-07-22T04:24:45.698Z,6.23
2018-07-22T04:27:18.181Z,6.73
2018-07-22T04:29:47.685Z,6.57
2018-07-22T04:32:20.251Z,8.20
2018-07-22T04:34:49.655Z,7.17
2018-07-22T04:37:23.152Z,6.67
2018-07-22T04:39:52.862Z,6.70
2018-07-22T04:42:26.055Z,6.70
2018-07-22T04:44:55.724Z,7.00
2018-07-22T04:47:28.141Z,6.77
2018-07-22T04:49:57.864Z,7.10
2018-07-22T04:52:31.248Z,8.07
2018-07-22T04:55:00.544Z,9.17
2018-07-22T04:57:33.788Z,6.70
2018-07-22T05:00:02.869Z,6.67
2018-07-22T05:02:35.298Z,9.70
2018-07-22T05:05:04.661Z,7.73
2018-07-22T05:07:37.556Z,8.37
2018-07-22T05:10:06.771Z,5.80
2018-07-22T05:12:43.554Z,6.73
2018-07-22T05:15:13.388Z,10.07
2018-07-22T05:17:42.810Z,6.80
2018-07-22T05:20:11.780Z,6.57
2018-07-22T05:22:48.295Z,11.57
2018-07-22T05:25:17.697Z,6.13
2018-07-22T05:27:49.407Z,5.83
2018-07-22T05:30:18.262Z,7.17
2018-07-22T05:32:51.864Z,5.73
2018-07-22T05:35:21.144Z,7.00
2018-07-22T05:37:54.249Z,6.90
2018-07-22T05:40:24.087Z,6.47
2018-07-22T05:43:01.814Z,7.07
2018-07-22T05:45:30.857Z,6.50
2018-07-22T05:48:00.169Z,6.53
2018-07-22T05:50:30.944Z,6.40
2018-07-22T05:53:04.862Z,6.17
2018-07-22T05:55:34.060Z,6.03
2018-07-22T05:58:06.111Z,5.63
2018-07-22T06:00:36.166Z,5.07
2018-07-22T06:03:09.582Z,5.93
2018-07-22T06:05:38.885Z,6.83
2018-07-22T06:08:13.075Z,5.83
2018-07-22T06:10:42.424Z,6.07
2018-07-22T06:13:15.299Z,4.70
2018-07-22T06:15:45.161Z,5.60
2018-07-22T06:18:17.618Z,6.93
2018-07-22T06:20:46.977Z,5.47
2018-07-22T06:23:20.160Z,4.83
2018-07-22T06:25:49.222Z,3.93
2018-07-22T06:28:22.261Z,5.20
2018-07-22T06:30:52.147Z,5.23
2018-07-22T06:33:24.153Z,4.90
2018-07-22T06:35:54.214Z,4.73
2018-07-22T06:38:27.057Z,5.50
2018-07-22T06:40:57.172Z,4.43
2018-07-22T06:43:34.592Z,5.13
2018-07-22T06:46:04.422Z,4.67
2018-07-22T06:48:34.275Z,5.83
2018-07-22T06:51:04.131Z,5.13
2018-07-22T06:53:40.226Z,6.17
2018-07-22T06:56:09.065Z,5.57
2018-07-22T06:58:39.513Z,5.93
2018-07-22T07:01:08.282Z,5.50
2018-07-22T07:03:42.208Z,5.37
2018-07-22T07:06:11.250Z,5.00
2018-07-22T07:08:43.845Z,4.47
2018-07-22T07:11:14.601Z,3.87
2018-07-22T07:13:47.711Z,4.33
2018-07-22T07:16:17.000Z,4.40
2018-07-22T07:18:49.663Z,4.40
2018-07-22T07:21:19.180Z,5.07
2018-07-22T07:23:56.328Z,4.37
2018-07-22T07:26:26.098Z,6.00
2018-07-22T07:28:57.298Z,4.67
2018-07-22T07:31:27.137Z,5.13
2018-07-22T07:33:58.180Z,4.97
2018-07-22T07:36:29.788Z,4.20
2018-07-22T07:38:59.528Z,4.67
2018-07-22T07:41:28.738Z,4.67
2018-07-22T07:44:01.949Z,5.70
2018-07-22T07:46:31.322Z,4.13
2018-07-22T07:49:05.036Z,3.87
2018-07-22T07:51:34.598Z,4.63
2018-07-22T07:54:07.635Z,5.30
2018-07-22T07:56:36.879Z,3.97
2018-07-22T07:59:14.342Z,4.00
2018-07-22T08:01:43.195Z,4.93
2018-07-22T08:04:13.865Z,5.93
2018-07-22T08:06:43.578Z,3.90
2018-07-22T08:09:16.361Z,3.60
2018-07-22T08:11:45.435Z,9.37
2018-07-22T08:14:18.822Z,2.87
2018-07-22T08:16:49.079Z,3.13
2018-07-22T08:19:22.405Z,4.20
2018-07-22T08:21:52.168Z,5.67
2018-07-22T08:24:26.161Z,8.20
2018-07-22T08:26:56.530Z,4.47
2018-07-22T08:29:30.289Z,4.00
2018-07-22T08:31:59.964Z,5.57
2018-07-22T08:34:30.687Z,6.90
2018-07-22T08:37:00.762Z,3.43
2018-07-22T08:39:35.186Z,6.87
2018-07-22T08:42:04.393Z,5.93
2018-07-22T08:44:35.431Z,4.93
2018-07-22T08:47:04.625Z,3.27
2018-07-22T08:49:36.709Z,4.33
2018-07-22T08:52:08.097Z,4.07
2018-07-22T08:54:41.177Z,3.27
2018-07-22T08:57:11.013Z,4.40
2018-07-22T08:59:41.432Z,3.33
2018-07-22T09:02:10.940Z,3.37
2018-07-22T09:04:44.421Z,6.10
2018-07-22T09:07:14.940Z,3.90
2018-07-22T09:09:48.348Z,3.87
2018-07-22T09:12:18.177Z,3.43
2018-07-22T09:14:50.854Z,3.20
2018-07-22T09:17:20.589Z,3.00
2018-07-22T09:19:53.566Z,3.93
2018-07-22T09:22:22.910Z,2.53
2018-07-22T09:24:55.476Z,3.73
2018-07-22T09:27:26.114Z,4.80
2018-07-22T09:30:00.665Z,3.67
2018-07-22T09:32:29.997Z,5.37
2018-07-22T09:35:03.060Z,2.80
2018-07-22T09:37:33.080Z,5.03
2018-07-22T09:40:06.103Z,3.00
2018-07-22T09:42:37.003Z,3.23
2018-07-22T09:45:12.537Z,6.17
2018-07-22T09:47:43.510Z,3.43
2018-07-22T09:50:13.198Z,3.90
2018-07-22T09:52:42.256Z,2.80
2018-07-22T09:55:15.124Z,3.17
2018-07-22T09:57:44.562Z,2.57
2018-07-22T10:00:22.642Z,2.70
2018-07-22T10:02:51.874Z,4.30
2018-07-22T10:05:21.698Z,3.23
2018-07-22T10:07:51.188Z,2.80
2018-07-22T10:10:23.099Z,3.00
2018-07-22T10:12:53.164Z,2.97
2018-07-22T10:15:23.568Z,2.70
2018-07-22T10:17:54.051Z,3.70
2018-07-22T10:20:25.675Z,3.70
2018-07-22T10:22:56.103Z,2.60
2018-07-22T10:25:29.205Z,2.90
2018-07-22T10:28:00.162Z,3.27
2018-07-22T10:30:31.280Z,3.23
2018-07-22T10:33:00.249Z,2.47
2018-07-22T10:35:35.316Z,2.87
2018-07-22T10:38:04.791Z,3.03
2018-07-22T10:40:36.154Z,2.80
2018-07-22T10:43:07.344Z,3.30
2018-07-22T10:45:39.603Z,3.30
2018-07-22T10:48:09.339Z,3.37
2018-07-22T10:50:39.888Z,3.23
2018-07-22T10:53:10.648Z,2.93
2018-07-22T10:55:43.819Z,3.17
2018-07-22T10:58:14.062Z,3.60
2018-07-22T11:00:47.991Z,2.77
2018-07-22T11:03:17.464Z,2.77
2018-07-22T11:05:49.835Z,7.67
2018-07-22T11:08:24.398Z,3.23
2018-07-22T11:10:53.923Z,3.30
2018-07-22T11:13:23.652Z,2.90
2018-07-22T11:15:56.702Z,3.43
2018-07-22T11:18:26.316Z,3.40
2018-07-22T11:21:03.546Z,4.07
2018-07-22T11:23:34.012Z,2.90
2018-07-22T11:26:07.484Z,2.90
2018-07-22T11:28:37.088Z,2.97
2018-07-22T11:31:06.695Z,2.93
2018-07-22T11:33:36.823Z,3.30
2018-07-22T11:36:07.321Z,3.03
2018-07-22T11:38:39.189Z,3.67
2018-07-22T11:41:11.743Z,2.83
2018-07-22T11:43:41.171Z,3.03
2018-07-22T11:46:14.675Z,3.33
2018-07-22T11:48:44.687Z,3.67
2018-07-22T11:51:19.284Z,5.80
2018-07-22T11:53:50.165Z,2.90
2018-07-22T11:56:19.383Z,5.77
2018-07-22T11:58:49.558Z,3.13
2018-07-22T12:01:22.636Z,3.37
2018-07-22T12:03:53.151Z,3.97
2018-07-22T12:06:25.080Z,4.17
2018-07-22T12:08:58.361Z,3.57
2018-07-22T12:11:29.560Z,3.50
2018-07-22T12:14:02.679Z,3.93
2018-07-22T12:16:34.463Z,3.50
2018-07-22T12:19:04.308Z,3.10
2018-07-22T12:21:34.261Z,3.60
2018-07-22T12:24:03.391Z,3.63
2018-07-22T12:26:33.159Z,4.30
2018-07-22T12:29:04.559Z,5.20
2018-07-22T12:31:38.251Z,4.40
2018-07-22T12:34:08.344Z,3.60
2018-07-22T12:36:39.669Z,4.37
2018-07-22T12:39:12.860Z,5.30
2018-07-22T12:41:42.446Z,3.60
2018-07-22T12:44:11.695Z,4.10
2018-07-22T12:46:44.297Z,5.37
2018-07-22T12:49:14.682Z,3.83
2018-07-22T12:51:47.559Z,5.20
2018-07-22T12:54:17.129Z,4.10
2018-07-22T12:56:49.823Z,3.67
2018-07-22T12:59:19.155Z,4.13
2018-07-22T13:01:51.238Z,4.13
2018-07-22T13:04:21.457Z,4.60
2018-07-22T13:06:56.199Z,4.63
2018-07-22T13:09:26.303Z,3.83
2018-07-22T13:11:57.157Z,3.73
2018-07-22T13:14:27.258Z,4.70
2018-07-22T13:17:00.735Z,4.27
2018-07-22T13:19:30.336Z,3.60
2018-07-22T13:22:05.707Z,3.87
2018-07-22T13:24:37.406Z,3.70
2018-07-22T13:27:07.174Z,4.70
2018-07-22T13:29:39.272Z,5.23
2018-07-22T13:32:10.688Z,3.70
2018-07-22T13:34:40.378Z,4.63
2018-07-22T13:37:13.446Z,5.27
2018-07-22T13:39:44.197Z,3.77
2018-07-22T13:42:15.665Z,4.13
2018-07-22T13:44:46.345Z,5.17
2018-07-22T13:47:18.349Z,4.23
2018-07-22T13:49:47.692Z,4.37
2018-07-22T13:52:20.510Z,4.27
2018-07-22T13:54:49.863Z,4.77
2018-07-22T13:57:23.143Z,5.00
2018-07-22T13:59:52.416Z,5.87
2018-07-22T14:02:25.536Z,6.03
2018-07-22T14:04:56.042Z,5.53
2018-07-22T14:07:29.323Z,5.30
2018-07-22T14:09:59.607Z,4.50
2018-07-22T14:12:30.438Z,6.10
2018-07-22T14:15:00.722Z,6.03
2018-07-22T14:17:33.918Z,6.57
2018-07-22T14:20:03.488Z,5.50
2018-07-22T14:22:33.792Z,5.67
2018-07-22T14:25:04.189Z,4.53
2018-07-22T14:27:45.189Z,5.27
2018-07-22T14:30:25.170Z,4.40
2018-07-22T14:32:56.536Z,4.17
2018-07-22T14:35:29.159Z,4.53
2018-07-22T14:38:03.094Z,4.50
2018-07-22T14:40:34.323Z,5.67
2018-07-22T14:43:08.556Z,6.10
2018-07-22T14:52:30.577Z,5.90
2018-07-22T14:55:02.108Z,5.43
2018-07-22T14:57:31.641Z,3.83
2018-07-22T15:00:04.237Z,6.37
2018-07-22T15:02:34.923Z,5.70
2018-07-22T15:05:06.604Z,6.57
2018-07-22T15:07:38.388Z,4.33
2018-07-22T15:10:08.912Z,7.33
2018-07-22T15:12:37.973Z,4.20
2018-07-22T15:15:07.484Z,5.37
2018-07-22T15:17:39.667Z,4.50
2018-07-22T15:20:12.090Z,4.73
2018-07-22T15:22:43.277Z,4.33
2018-07-22T15:25:13.153Z,4.47
2018-07-22T15:32:51.271Z,5.27
2018-07-22T15:35:26.072Z,4.83
2018-07-22T15:37:58.653Z,4.90
2018-07-22T15:40:30.345Z,4.53
2018-07-22T15:43:01.590Z,4.40
2018-07-22T15:45:30.705Z,5.30
2018-07-22T15:48:06.590Z,4.60
2018-07-22T15:50:35.813Z,3.90
2018-07-22T15:53:07.150Z,4.30
2018-07-22T15:55:42.853Z,5.37
2018-07-22T15:58:12.381Z,4.53
2018-07-22T16:00:45.878Z,4.67
2018-07-22T16:03:15.819Z,4.53
2018-07-22T16:05:46.286Z,4.83
2018-07-22T16:08:16.303Z,4.43
2018-07-22T16:10:45.457Z,4.70
2018-07-22T16:13:15.169Z,6.10
2018-07-22T16:15:44.929Z,4.60
2018-07-22T16:18:17.741Z,4.43
2018-07-22T16:20:47.643Z,6.40
2018-07-22T16:23:17.068Z,5.30
2018-07-22T16:25:47.074Z,5.63
2018-07-22T16:28:17.704Z,4.70
2018-07-22T16:30:46.779Z,4.80
2018-07-22T16:33:18.676Z,4.33
2018-07-22T16:35:49.219Z,4.83
2018-07-22T16:38:18.784Z,5.17
2018-07-22T16:40:48.200Z,5.27
2018-07-22T16:43:17.160Z,5.03
2018-07-22T16:45:50.639Z,4.63
2018-07-22T16:48:20.054Z,6.47
2018-07-22T16:50:58.925Z,6.63
2018-07-22T16:53:29.558Z,5.17
2018-07-22T16:55:59.871Z,5.70
2018-07-22T16:58:31.672Z,5.83
2018-07-22T17:01:03.900Z,5.73
2018-07-22T17:03:34.744Z,5.97
2018-07-22T17:06:04.755Z,5.67
2018-07-22T17:08:34.572Z,6.40
2018-07-22T17:11:06.772Z,8.17
2018-07-22T17:13:36.640Z,7.93
2018-07-22T17:16:08.631Z,5.50
2018-07-22T17:18:40.327Z,5.37
2018-07-22T17:21:11.395Z,6.20
2018-07-22T17:23:43.599Z,5.67
2018-07-22T17:26:17.239Z,6.57
2018-07-22T17:28:48.977Z,6.20
2018-07-22T17:31:19.289Z,5.73
2018-07-22T17:33:51.900Z,5.83
2018-07-22T17:36:21.395Z,5.93
2018-07-22T17:38:54.586Z,6.73
2018-07-22T17:41:26.422Z,5.53
2018-07-22T17:43:59.071Z,5.77
2018-07-22T17:46:29.364Z,5.30
2018-07-22T17:48:59.148Z,5.93
2018-07-22T17:51:31.589Z,5.60
2018-07-22T17:54:03.685Z,5.73
2018-07-22T17:56:34.361Z,6.50
2018-07-22T17:59:06.908Z,6.57
2018-07-22T18:01:40.796Z,6.40
2018-07-22T18:04:13.635Z,5.73
2018-07-22T18:06:43.732Z,8.10
2018-07-22T18:09:13.778Z,8.23
2018-07-22T18:11:44.004Z,6.50
2018-07-22T18:14:13.303Z,6.57
2018-07-22T18:16:42.833Z,5.33
2018-07-22T18:19:13.125Z,5.80
2018-07-22T18:21:48.165Z,5.83
2018-07-22T18:24:27.176Z,6.07
2018-07-22T18:26:59.715Z,5.40
2018-07-22T18:29:31.098Z,6.03
2018-07-22T18:32:00.678Z,5.70
2018-07-22T18:34:34.210Z,6.00
2018-07-22T18:37:07.771Z,5.83
2018-07-22T18:39:39.253Z,6.03
2018-07-22T18:42:10.424Z,6.77
2018-07-22T18:44:40.122Z,6.53
2018-07-22T18:47:10.713Z,6.70
2018-07-22T18:49:41.481Z,6.33
2018-07-22T18:52:11.161Z,5.63
2018-07-22T18:54:41.153Z,6.03
2018-07-22T18:57:12.884Z,5.80
2018-07-22T18:59:44.154Z,5.90
2018-07-22T19:02:15.260Z,6.37
2018-07-22T19:04:47.685Z,6.63
2018-07-22T19:07:19.676Z,6.30
2018-07-22T19:09:49.398Z,5.57
2018-07-22T19:12:20.824Z,6.13
2018-07-22T19:14:51.716Z,4.97
2018-07-22T19:17:22.648Z,5.87
2018-07-22T19:19:53.829Z,6.63
2018-07-22T19:22:27.226Z,8.33
2018-07-22T19:24:58.342Z,5.90
2018-07-22T19:27:30.519Z,6.27
2018-07-22T19:30:00.294Z,6.97
2018-07-22T19:32:30.163Z,7.13
2018-07-22T19:35:05.564Z,6.43
2018-07-22T19:37:35.702Z,7.40
2018-07-22T19:40:05.480Z,7.13
2018-07-22T19:42:37.785Z,8.07
2018-07-22T19:45:11.232Z,7.20
2018-07-22T19:47:43.468Z,7.13
2018-07-22T19:50:18.298Z,6.53
2018-07-22T19:52:47.721Z,5.97
2018-07-22T19:55:18.422Z,4.70
2018-07-22T19:57:52.972Z,7.27
2018-07-22T20:03:06.131Z,4.93
2018-07-22T20:05:41.707Z,4.17
2018-07-22T20:08:14.736Z,4.77
2018-07-22T20:10:48.249Z,4.10
2018-07-22T20:13:22.357Z,5.67
2018-07-22T20:16:03.672Z,4.37
2018-07-22T20:18:34.166Z,3.67
2018-07-22T20:21:31.527Z,4.60
2018-07-22T20:24:14.518Z,3.40
2018-07-22T20:26:54.547Z,4.20
2018-07-22T20:29:27.170Z,3.23
2018-07-22T20:32:02.939Z,3.37
2018-07-22T20:34:53.384Z,3.27
2018-07-22T20:37:25.074Z,3.23
2018-07-22T20:39:59.802Z,2.80
2018-07-22T20:42:29.664Z,2.80
2018-07-22T20:45:02.371Z,3.87
2018-07-22T20:47:34.217Z,2.70
2018-07-22T20:50:06.178Z,2.87
2018-07-22T20:52:36.523Z,3.02
2018-07-22T20:55:08.401Z,3.17
2018-07-22T20:57:38.776Z,2.53
2018-07-22T21:00:09.250Z,2.53
2018-07-22T21:02:40.507Z,2.50
2018-07-22T21:05:15.208Z,2.43
2018-07-22T21:07:47.554Z,2.77
2018-07-22T21:10:17.285Z,2.47
2018-07-22T21:13:01.150Z,2.60
2018-07-22T21:15:43.588Z,2.90
2018-07-22T21:18:39.464Z,2.27
2018-07-22T21:21:09.363Z,2.80
2018-07-22T21:23:39.272Z,2.67
2018-07-22T21:26:09.494Z,2.37
2018-07-22T21:28:39.536Z,2.27
2018-07-22T21:33:59.255Z,2.53
2018-07-22T21:36:32.462Z,2.07
2018-07-22T21:39:02.250Z,2.20
2018-07-22T21:41:32.771Z,2.80
2018-07-22T21:44:03.208Z,2.10
2018-07-22T21:46:33.607Z,1.60
2018-07-22T21:49:04.165Z,2.03
2018-07-22T21:51:35.904Z,1.70
2018-07-22T21:54:07.661Z,2.03
2018-07-22T21:56:37.154Z,2.10
2018-07-22T21:59:07.661Z,2.13
2018-07-22T22:01:42.970Z,2.10
2018-07-22T22:04:12.568Z,2.23
2018-07-22T22:06:42.900Z,3.27
2018-07-22T22:09:15.065Z,1.80
2018-07-22T22:11:46.218Z,2.07
2018-07-22T22:14:16.248Z,1.90
2018-07-22T22:16:49.383Z,3.17
2018-07-22T22:19:19.079Z,1.90
2018-07-22T22:21:51.534Z,2.47
2018-07-22T22:24:21.154Z,1.90
2018-07-22T22:29:27.723Z,1.97
2018-07-22T22:31:56.931Z,1.97
2018-07-22T22:34:27.288Z,2.70
2018-07-22T22:37:00.418Z,1.90
2018-07-22T22:39:30.172Z,2.20
2018-07-22T22:42:01.429Z,1.90
2018-07-22T22:44:31.246Z,2.27
2018-07-22T22:47:05.109Z,2.00
2018-07-22T22:49:35.742Z,2.20
2018-07-22T22:52:09.460Z,2.70
2018-07-22T22:54:38.770Z,2.47
2018-07-22T22:57:10.839Z,2.40
2018-07-22T22:59:42.103Z,2.23
2018-07-22T23:02:14.648Z,1.90
2018-07-22T23:04:43.710Z,4.20
2018-07-22T23:07:16.787Z,2.30
2018-07-22T23:09:49.851Z,2.37
2018-07-22T23:12:19.003Z,2.47
2018-07-22T23:14:48.105Z,2.47
2018-07-22T23:17:20.276Z,2.67
2018-07-22T23:19:49.561Z,5.57
2018-07-22T23:22:25.806Z,4.97
2018-07-22T23:24:55.515Z,2.23
2018-07-22T23:27:25.307Z,3.40
2018-07-22T23:29:54.424Z,2.53
2018-07-22T23:32:29.467Z,2.47
2018-07-22T23:35:00.725Z,2.87
2018-07-22T23:37:30.828Z,2.67
2018-07-22T23:40:02.497Z,2.07
2018-07-22T23:42:33.834Z,2.50
2018-07-22T23:45:03.527Z,2.80
2018-07-22T23:47:35.331Z,3.03
2018-07-22T23:50:05.419Z,3.43
2018-07-22T23:52:39.910Z,3.10
2018-07-22T23:55:09.398Z,3.97
2018-07-22T23:57:40.280Z,3.17
